Time;durP1;ratioP1;P1;durP2;ratioP2;P2;SDS_P1;SDS_P2;PMS_P1;PMS_P2;Temp;Humidity;BMP_temperature;BMP_pressure;BME280_temperature;BME280_humidity;BME280_pressure;Samples;Min_cycle;Max_cycle;Signal;HPM_P1;HPM_P2
2022/03/27 00:00:38;;;;;;;15.82;12.55;;;;;;;;;;5101742;28;20492;-69
2022/03/27 00:03:05;;;;;;;17.75;13.10;;;;;;;;;;5092681;28;20147;-68
2022/03/27 00:05:31;;;;;;;16.13;12.77;;;;;;;;;;5094563;28;20136;-67
2022/03/27 00:07:56;;;;;;;16.00;13.15;;;;;;;;;;5103945;27;20480;-68
2022/03/27 00:10:21;;;;;;;14.73;11.75;;;;;;;;;;5108849;28;20434;-68
2022/03/27 00:12:46;;;;;;;14.65;11.23;;;;;;;;;;5113103;27;20020;-68
2022/03/27 00:15:11;;;;;;;16.02;11.77;;;;;;;;;;5100046;28;20020;-69
2022/03/27 00:17:37;;;;;;;13.93;10.52;;;;;;;;;;5102092;28;20125;-68
2022/03/27 00:20:03;;;;;;;14.00;10.77;;;;;;;;;;5105786;27;20357;-69
2022/03/27 00:22:29;;;;;;;15.25;10.40;;;;;;;;;;5111700;28;20122;-68
2022/03/27 00:24:54;;;;;;;16.27;10.35;;;;;;;;;;5113572;28;20108;-68
2022/03/27 00:27:20;;;;;;;14.00;10.93;;;;;;;;;;5106914;28;20023;-68
2022/03/27 00:29:45;;;;;;;12.55;10.13;;;;;;;;;;5106760;27;20065;-69
2022/03/27 00:32:11;;;;;;;12.88;9.98;;;;;;;;;;5116543;27;20027;-68
2022/03/27 00:34:36;;;;;;;11.98;9.55;;;;;;;;;;5123318;27;20325;-68
2022/03/27 00:37:01;;;;;;;12.63;9.10;;;;;;;;;;5111313;28;20024;-69
2022/03/27 00:39:26;;;;;;;15.68;9.77;;;;;;;;;;5102267;28;20495;-68
2022/03/27 00:41:52;;;;;;;12.13;10.32;;;;;;;;;;5093410;28;20024;-68
2022/03/27 00:44:17;;;;;;;11.88;9.63;;;;;;;;;;5112744;28;20027;-68
2022/03/27 00:46:42;;;;;;;13.80;10.10;;;;;;;;;;5110752;28;20019;-68
2022/03/27 00:49:07;;;;;;;13.63;10.10;;;;;;;;;;5108503;28;20011;-69
2022/03/27 00:51:33;;;;;;;13.85;10.20;;;;;;;;;;5083681;28;20034;-69
2022/03/27 00:53:58;;;;;;;14.45;9.82;;;;;;;;;;5112547;28;20395;-69
2022/03/27 00:56:24;;;;;;;13.68;9.77;;;;;;;;;;5107051;28;20024;-69
2022/03/27 00:58:49;;;;;;;14.70;10.43;;;;;;;;;;5095337;28;20047;-68
2022/03/27 01:01:15;;;;;;;12.48;9.10;;;;;;;;;;5101029;27;20507;-68
2022/03/27 01:03:40;;;;;;;12.68;9.80;;;;;;;;;;5096041;28;20012;-68
2022/03/27 01:06:16;;;;;;;13.02;9.65;;;;;;;;;;5108005;28;20027;-69
2022/03/27 01:11:25;;;;;;;10.65;8.80;;;;;;;;;;5102771;28;20039;-69
2022/03/27 01:13:55;;;;;;;11.10;9.05;;;;;;;;;;5112336;27;20024;-69
2022/03/27 01:16:38;;;;;;;11.57;9.63;;;;;;;;;;5097236;27;20050;-69
2022/03/27 01:19:04;;;;;;;12.00;9.50;;;;;;;;;;5103364;28;20506;-68
2022/03/27 01:21:30;;;;;;;11.65;9.88;;;;;;;;;;5108553;28;20024;-68
2022/03/27 01:23:55;;;;;;;11.68;9.32;;;;;;;;;;5104632;28;20031;-69
2022/03/27 01:26:22;;;;;;;12.30;9.95;;;;;;;;;;5106951;28;20035;-68
2022/03/27 01:28:47;;;;;;;12.93;9.40;;;;;;;;;;5108860;28;20022;-68
2022/03/27 01:31:12;;;;;;;11.95;9.70;;;;;;;;;;5107215;28;20007;-69
2022/03/27 01:33:38;;;;;;;13.07;9.90;;;;;;;;;;5106259;28;20031;-69
2022/03/27 01:36:03;;;;;;;14.32;10.27;;;;;;;;;;5102722;28;20564;-69
2022/03/27 01:38:28;;;;;;;12.13;8.93;;;;;;;;;;5108142;27;20011;-68
2022/03/27 01:40:53;;;;;;;13.45;10.50;;;;;;;;;;5108942;28;20435;-69
2022/03/27 01:43:19;;;;;;;13.43;10.30;;;;;;;;;;5110950;28;20094;-69
2022/03/27 01:45:44;;;;;;;11.70;9.90;;;;;;;;;;5104411;28;20756;-69
2022/03/27 01:48:09;;;;;;;14.10;10.13;;;;;;;;;;5110970;28;20514;-69
2022/03/27 01:50:34;;;;;;;12.90;10.32;;;;;;;;;;5098349;28;20490;-69
2022/03/27 01:52:59;;;;;;;12.02;9.70;;;;;;;;;;5101774;28;20026;-69
2022/03/27 01:55:25;;;;;;;14.07;9.98;;;;;;;;;;5101011;28;20024;-70
2022/03/27 01:57:50;;;;;;;14.25;10.80;;;;;;;;;;5105613;28;20039;-70
2022/03/27 02:00:15;;;;;;;13.30;10.50;;;;;;;;;;5107091;28;20077;-70
2022/03/27 02:02:40;;;;;;;14.90;11.13;;;;;;;;;;5108958;28;20020;-69
2022/03/27 02:05:06;;;;;;;14.63;10.93;;;;;;;;;;5105027;28;20051;-69
2022/03/27 02:07:38;;;;;;;14.85;11.55;;;;;;;;;;5091446;28;20051;-69
2022/03/27 02:10:04;;;;;;;13.98;10.75;;;;;;;;;;5085191;28;20380;-69
2022/03/27 02:12:30;;;;;;;15.48;11.70;;;;;;;;;;5108766;28;20019;-69
2022/03/27 02:14:56;;;;;;;14.65;11.02;;;;;;;;;;5103160;28;20032;-70
2022/03/27 02:17:21;;;;;;;13.90;11.15;;;;;;;;;;5093596;28;20028;-69
2022/03/27 02:19:46;;;;;;;14.80;11.43;;;;;;;;;;5102175;28;20114;-69
2022/03/27 02:22:11;;;;;;;15.13;11.07;;;;;;;;;;5091932;28;20528;-69
2022/03/27 02:24:36;;;;;;;15.18;11.80;;;;;;;;;;5103905;28;20012;-69
2022/03/27 02:27:02;;;;;;;15.38;12.05;;;;;;;;;;5103738;28;20019;-69
2022/03/27 02:29:27;;;;;;;14.57;11.02;;;;;;;;;;5106085;28;20055;-69
2022/03/27 02:31:52;;;;;;;15.65;12.40;;;;;;;;;;5104267;28;20024;-69
2022/03/27 02:34:17;;;;;;;16.15;12.30;;;;;;;;;;5096360;28;20036;-69
2022/03/27 02:36:43;;;;;;;15.38;11.55;;;;;;;;;;5099276;28;20059;-69
2022/03/27 02:39:08;;;;;;;18.25;12.50;;;;;;;;;;5107360;28;20022;-69
2022/03/27 02:41:34;;;;;;;16.05;11.70;;;;;;;;;;5109380;28;20081;-69
2022/03/27 02:43:59;;;;;;;15.43;12.60;;;;;;;;;;5110215;28;20012;-69
2022/03/27 02:46:24;;;;;;;18.25;12.27;;;;;;;;;;5107194;28;20031;-69
2022/03/27 02:48:49;;;;;;;16.02;12.73;;;;;;;;;;5102068;28;20024;-68
2022/03/27 02:51:15;;;;;;;17.45;12.60;;;;;;;;;;5098254;28;20048;-69
2022/03/27 02:53:40;;;;;;;16.90;12.57;;;;;;;;;;5105121;28;20066;-69
2022/03/27 02:56:07;;;;;;;19.15;13.38;;;;;;;;;;5099478;28;20029;-69
2022/03/27 02:58:32;;;;;;;15.82;12.35;;;;;;;;;;5098353;28;20036;-69
2022/03/27 03:00:57;;;;;;;16.13;12.63;;;;;;;;;;5106827;28;20027;-69
2022/03/27 03:03:23;;;;;;;18.20;13.38;;;;;;;;;;5109554;28;20019;-68
2022/03/27 03:05:48;;;;;;;19.35;13.70;;;;;;;;;;5106329;28;20495;-69
2022/03/27 03:08:14;;;;;;;15.50;11.80;;;;;;;;;;5096842;28;20047;-69
2022/03/27 03:10:40;;;;;;;16.88;12.82;;;;;;;;;;5109450;27;20055;-69
2022/03/27 03:13:08;;;;;;;21.08;13.73;;;;;;;;;;5109487;28;20031;-69
2022/03/27 03:15:33;;;;;;;17.73;12.55;;;;;;;;;;5109852;28;20114;-69
2022/03/27 03:17:58;;;;;;;17.45;13.40;;;;;;;;;;5114016;28;20111;-69
2022/03/27 03:20:24;;;;;;;18.85;13.88;;;;;;;;;;5098625;27;20121;-69
2022/03/27 03:22:49;;;;;;;18.90;13.20;;;;;;;;;;5111103;28;20076;-68
2022/03/27 03:25:15;;;;;;;21.75;14.07;;;;;;;;;;5112278;28;20376;-68
2022/03/27 03:27:40;;;;;;;18.92;13.48;;;;;;;;;;5107519;28;20047;-68
2022/03/27 03:30:07;;;;;;;16.25;12.73;;;;;;;;;;5107253;28;20089;-68
2022/03/27 03:32:34;;;;;;;19.02;14.02;;;;;;;;;;5102373;28;20480;-68
2022/03/27 03:35:00;;;;;;;17.95;13.05;;;;;;;;;;5118111;27;20028;-69
2022/03/27 03:37:25;;;;;;;19.77;13.60;;;;;;;;;;5109143;28;20035;-70
2022/03/27 03:39:50;;;;;;;18.98;12.60;;;;;;;;;;5109264;27;20023;-69
2022/03/27 03:42:15;;;;;;;18.80;13.77;;;;;;;;;;5101195;27;20047;-69
2022/03/27 03:44:41;;;;;;;15.70;12.20;;;;;;;;;;5107476;28;20403;-69
2022/03/27 03:47:07;;;;;;;17.13;12.45;;;;;;;;;;5100004;28;20487;-69
2022/03/27 03:49:32;;;;;;;17.33;13.32;;;;;;;;;;5103923;27;20024;-68
2022/03/27 03:51:57;;;;;;;18.25;12.48;;;;;;;;;;5082047;28;20024;-69
2022/03/27 03:54:22;;;;;;;18.60;14.38;;;;;;;;;;5101329;28;20035;-69
2022/03/27 03:56:47;;;;;;;19.77;13.85;;;;;;;;;;5108441;28;20192;-69
2022/03/27 03:59:13;;;;;;;17.02;13.68;;;;;;;;;;5108802;28;20052;-69
2022/03/27 04:01:38;;;;;;;18.08;13.35;;;;;;;;;;5101437;27;20115;-69
2022/03/27 04:04:03;;;;;;;17.58;12.55;;;;;;;;;;5114064;27;20019;-69
2022/03/27 04:06:28;;;;;;;16.60;12.85;;;;;;;;;;5107369;28;20032;-69
2022/03/27 04:08:54;;;;;;;19.88;13.10;;;;;;;;;;5112121;27;20026;-69
2022/03/27 04:11:19;;;;;;;16.92;11.98;;;;;;;;;;5100854;27;20031;-69
2022/03/27 04:13:44;;;;;;;16.15;12.02;;;;;;;;;;5115939;27;20115;-69
2022/03/27 04:16:10;;;;;;;15.65;12.00;;;;;;;;;;5112774;27;20365;-68
2022/03/27 04:18:35;;;;;;;17.33;12.65;;;;;;;;;;5105013;27;20027;-68
2022/03/27 04:21:01;;;;;;;16.30;12.30;;;;;;;;;;5097383;28;20016;-69
2022/03/27 04:23:26;;;;;;;18.58;12.23;;;;;;;;;;5104279;28;20085;-69
2022/03/27 04:25:51;;;;;;;16.90;12.02;;;;;;;;;;5095160;28;20038;-69
2022/03/27 04:28:16;;;;;;;17.35;12.70;;;;;;;;;;5107430;28;20032;-69
2022/03/27 04:30:41;;;;;;;15.70;12.45;;;;;;;;;;5111516;27;20020;-69
2022/03/27 04:33:08;;;;;;;17.35;12.38;;;;;;;;;;5108563;27;20399;-69
2022/03/27 04:35:34;;;;;;;17.95;12.55;;;;;;;;;;5112159;28;20495;-68
2022/03/27 04:38:00;;;;;;;18.58;13.80;;;;;;;;;;5108340;28;20479;-69
2022/03/27 04:40:25;;;;;;;16.48;12.50;;;;;;;;;;5111821;28;20133;-69
2022/03/27 04:42:50;;;;;;;18.95;13.40;;;;;;;;;;5100134;27;20115;-69
2022/03/27 04:45:15;;;;;;;20.30;14.50;;;;;;;;;;5110291;28;20020;-69
2022/03/27 04:47:40;;;;;;;18.60;14.15;;;;;;;;;;5106692;28;20027;-68
2022/03/27 04:50:06;;;;;;;17.48;13.23;;;;;;;;;;5103337;28;20021;-69
2022/03/27 04:52:32;;;;;;;20.92;14.65;;;;;;;;;;5117184;27;20072;-69
2022/03/27 04:54:57;;;;;;;19.60;14.38;;;;;;;;;;5111826;28;20032;-69
2022/03/27 04:57:23;;;;;;;16.90;13.00;;;;;;;;;;5106579;28;20067;-68
2022/03/27 04:59:48;;;;;;;17.98;13.63;;;;;;;;;;5110202;27;20102;-68
2022/03/27 05:02:13;;;;;;;20.10;13.98;;;;;;;;;;5109974;27;20027;-69
2022/03/27 05:04:41;;;;;;;19.95;14.40;;;;;;;;;;5110911;28;20020;-68
2022/03/27 05:07:06;;;;;;;16.67;13.40;;;;;;;;;;5099132;28;20020;-68
2022/03/27 05:09:31;;;;;;;17.98;13.63;;;;;;;;;;5110172;27;20016;-68
2022/03/27 05:11:56;;;;;;;18.15;12.93;;;;;;;;;;5111834;28;20037;-68
2022/03/27 05:14:22;;;;;;;17.50;13.10;;;;;;;;;;5088463;27;20442;-69
2022/03/27 05:16:47;;;;;;;18.08;12.75;;;;;;;;;;5094166;28;20024;-69
2022/03/27 05:19:12;;;;;;;17.65;13.43;;;;;;;;;;5110186;28;20030;-69
2022/03/27 05:21:37;;;;;;;21.33;13.70;;;;;;;;;;5094959;27;20019;-68
2022/03/27 05:24:03;;;;;;;18.45;14.15;;;;;;;;;;5105420;27;20019;-68
2022/03/27 05:26:28;;;;;;;17.80;13.27;;;;;;;;;;5106854;28;20016;-68
2022/03/27 05:28:54;;;;;;;17.48;13.45;;;;;;;;;;5108400;28;20027;-69
2022/03/27 05:31:19;;;;;;;18.13;13.45;;;;;;;;;;5112357;28;20015;-69
2022/03/27 05:33:45;;;;;;;22.23;14.25;;;;;;;;;;5115453;27;20101;-69
2022/03/27 05:36:10;;;;;;;20.27;14.00;;;;;;;;;;5102774;28;20027;-69
2022/03/27 05:38:37;;;;;;;19.50;14.15;;;;;;;;;;5097592;28;20035;-69
2022/03/27 05:41:03;;;;;;;16.98;13.68;;;;;;;;;;5092482;28;20020;-70
2022/03/27 05:43:28;;;;;;;16.85;12.90;;;;;;;;;;5101530;27;20106;-68
2022/03/27 05:45:53;;;;;;;17.05;12.93;;;;;;;;;;5107863;27;20020;-68
2022/03/27 05:48:19;;;;;;;18.35;13.38;;;;;;;;;;5108124;28;20031;-69
2022/03/27 05:50:44;;;;;;;18.45;13.57;;;;;;;;;;5110492;28;20114;-69
2022/03/27 05:53:09;;;;;;;16.73;13.00;;;;;;;;;;5105450;28;20062;-69
2022/03/27 05:55:34;;;;;;;20.40;14.82;;;;;;;;;;5093370;28;20091;-69
2022/03/27 05:58:00;;;;;;;17.52;14.05;;;;;;;;;;5105074;28;20036;-69
2022/03/27 06:00:26;;;;;;;22.17;14.82;;;;;;;;;;5102620;28;20016;-69
2022/03/27 06:02:52;;;;;;;18.13;14.00;;;;;;;;;;5106680;28;20085;-68
2022/03/27 06:05:22;;;;;;;20.25;14.93;;;;;;;;;;5102378;28;20483;-68
2022/03/27 06:07:48;;;;;;;19.08;14.52;;;;;;;;;;5104089;28;20031;-68
2022/03/27 06:10:14;;;;;;;16.50;13.80;;;;;;;;;;5110309;28;20086;-68
2022/03/27 06:12:39;;;;;;;14.98;12.63;;;;;;;;;;5103698;28;20575;-68
2022/03/27 06:15:05;;;;;;;17.35;13.30;;;;;;;;;;5100626;28;20040;-69
2022/03/27 06:17:36;;;;;;;17.05;12.90;;;;;;;;;;5107890;28;20072;-69
2022/03/27 06:20:01;;;;;;;18.38;13.95;;;;;;;;;;5104854;28;20384;-69
2022/03/27 06:22:27;;;;;;;17.85;13.93;;;;;;;;;;5104089;28;20031;-69
2022/03/27 06:24:52;;;;;;;17.75;13.43;;;;;;;;;;5105232;28;20066;-69
2022/03/27 06:27:17;;;;;;;18.77;14.30;;;;;;;;;;5107156;28;20035;-69
2022/03/27 06:29:43;;;;;;;20.48;15.05;;;;;;;;;;5107342;28;20419;-69
2022/03/27 06:32:09;;;;;;;17.58;13.90;;;;;;;;;;5103433;28;20495;-69
2022/03/27 06:34:35;;;;;;;16.60;13.57;;;;;;;;;;5102144;28;20080;-69
2022/03/27 06:37:00;;;;;;;15.88;12.95;;;;;;;;;;5105140;28;20016;-70
2022/03/27 06:39:25;;;;;;;17.45;13.57;;;;;;;;;;5100741;28;20356;-69
2022/03/27 06:41:50;;;;;;;18.42;14.48;;;;;;;;;;5099947;28;20503;-69
2022/03/27 06:44:16;;;;;;;16.65;13.95;;;;;;;;;;5105757;28;20030;-69
2022/03/27 06:46:41;;;;;;;18.52;14.38;;;;;;;;;;5109859;27;20031;-69
2022/03/27 06:49:06;;;;;;;17.67;14.43;;;;;;;;;;5107366;27;20147;-68
2022/03/27 06:51:31;;;;;;;16.58;13.57;;;;;;;;;;5088962;28;20406;-68
2022/03/27 06:53:57;;;;;;;17.95;14.07;;;;;;;;;;5113735;27;20391;-68
2022/03/27 06:56:23;;;;;;;16.55;13.30;;;;;;;;;;5103638;27;20020;-68
2022/03/27 06:58:48;;;;;;;18.67;13.98;;;;;;;;;;5107845;27;20487;-68
2022/03/27 07:03:57;;;;;;;18.25;13.85;;;;;;;;;;5101730;28;20054;-68
2022/03/27 07:06:23;;;;;;;17.27;14.10;;;;;;;;;;5112265;27;20035;-68
2022/03/27 07:08:48;;;;;;;17.13;14.45;;;;;;;;;;5109347;27;20031;-68
2022/03/27 07:11:14;;;;;;;16.88;13.70;;;;;;;;;;5111186;28;20034;-68
2022/03/27 07:13:41;;;;;;;19.60;14.43;;;;;;;;;;5102742;27;20137;-67
2022/03/27 07:16:06;;;;;;;20.48;15.20;;;;;;;;;;5105775;28;20428;-67
2022/03/27 07:18:31;;;;;;;18.55;14.57;;;;;;;;;;5108229;28;20122;-67
2022/03/27 07:20:57;;;;;;;17.65;13.25;;;;;;;;;;5107885;28;20019;-68
2022/03/27 07:23:24;;;;;;;18.58;13.48;;;;;;;;;;5095241;27;20027;-69
2022/03/27 07:25:50;;;;;;;15.02;12.30;;;;;;;;;;5096471;27;20268;-68
2022/03/27 07:28:16;;;;;;;13.05;11.68;;;;;;;;;;5104066;27;20060;-69
2022/03/27 07:30:42;;;;;;;13.98;11.05;;;;;;;;;;5097839;28;20047;-69
2022/03/27 07:33:07;;;;;;;13.35;9.95;;;;;;;;;;5094988;27;20024;-69
2022/03/27 07:35:32;;;;;;;14.63;11.70;;;;;;;;;;5108479;27;20019;-69
2022/03/27 07:37:58;;;;;;;12.82;11.30;;;;;;;;;;5102098;27;20102;-69
2022/03/27 07:40:23;;;;;;;9.20;7.85;;;;;;;;;;5104476;27;20057;-69
2022/03/27 07:42:50;;;;;;;12.85;9.70;;;;;;;;;;5105849;27;20120;-69
2022/03/27 07:45:19;;;;;;;11.63;9.43;;;;;;;;;;5085454;27;20024;-69
2022/03/27 07:47:45;;;;;;;11.10;8.93;;;;;;;;;;5102701;27;20024;-69
2022/03/27 07:50:11;;;;;;;12.10;9.82;;;;;;;;;;5108856;27;20476;-69
2022/03/27 07:52:37;;;;;;;12.35;9.65;;;;;;;;;;5107487;27;20509;-69
2022/03/27 07:55:03;;;;;;;11.55;9.55;;;;;;;;;;5104770;27;20032;-69
2022/03/27 07:57:28;;;;;;;12.88;9.20;;;;;;;;;;5104100;27;20056;-69
2022/03/27 07:59:54;;;;;;;10.95;8.50;;;;;;;;;;5109656;27;20035;-69
2022/03/27 08:02:21;;;;;;;5.80;5.20;;;;;;;;;;5110397;27;20031;-68
2022/03/27 08:04:46;;;;;;;3.85;3.13;;;;;;;;;;5109769;27;20031;-68
2022/03/27 08:07:12;;;;;;;3.25;1.80;;;;;;;;;;5103873;27;20526;-69
2022/03/27 08:09:37;;;;;;;2.08;1.60;;;;;;;;;;5109879;27;20507;-69
2022/03/27 08:12:02;;;;;;;4.07;2.83;;;;;;;;;;5107567;27;20038;-69
2022/03/27 08:14:31;;;;;;;6.38;5.20;;;;;;;;;;5103758;27;20043;-69
2022/03/27 08:16:56;;;;;;;4.70;4.10;;;;;;;;;;5110508;28;20031;-68
2022/03/27 08:19:22;;;;;;;3.83;3.45;;;;;;;;;;5108540;28;20114;-68
2022/03/27 08:21:47;;;;;;;4.07;3.13;;;;;;;;;;5099542;28;20055;-68
2022/03/27 08:24:12;;;;;;;5.32;3.92;;;;;;;;;;5113674;28;20023;-68
2022/03/27 08:26:56;;;;;;;4.00;3.08;;;;;;;;;;5105195;28;20023;-68
2022/03/27 08:29:26;;;;;;;3.05;2.72;;;;;;;;;;5100418;28;20038;-68
2022/03/27 08:31:54;;;;;;;2.40;2.13;;;;;;;;;;5111948;28;20468;-68
2022/03/27 08:34:20;;;;;;;2.92;2.63;;;;;;;;;;5093036;28;20023;-68
2022/03/27 08:36:46;;;;;;;3.58;2.78;;;;;;;;;;5093857;28;20026;-69
2022/03/27 08:39:11;;;;;;;5.00;2.70;;;;;;;;;;5110923;28;20059;-69
2022/03/27 08:41:38;;;;;;;4.00;2.85;;;;;;;;;;5111646;28;20020;-69
2022/03/27 08:44:04;;;;;;;3.70;3.38;;;;;;;;;;5112626;28;20030;-68
2022/03/27 08:46:29;;;;;;;4.35;2.72;;;;;;;;;;5113305;28;20012;-68
2022/03/27 08:49:08;;;;;;;3.78;2.28;;;;;;;;;;5111643;28;20114;-69
2022/03/27 08:51:38;;;;;;;4.03;2.75;;;;;;;;;;5112924;28;20081;-69
2022/03/27 08:54:05;;;;;;;3.40;2.47;;;;;;;;;;5112194;28;20019;-68
2022/03/27 08:56:32;;;;;;;2.92;1.90;;;;;;;;;;5105098;27;20125;-69
2022/03/27 08:58:58;;;;;;;1.50;1.10;;;;;;;;;;5102827;28;20040;-68
2022/03/27 09:01:24;;;;;;;1.70;1.30;;;;;;;;;;5108250;28;20425;-69
2022/03/27 09:03:49;;;;;;;1.02;0.50;;;;;;;;;;5112799;28;20026;-69
2022/03/27 09:06:14;;;;;;;0.55;0.30;;;;;;;;;;5107581;28;20012;-69
2022/03/27 09:08:39;;;;;;;0.60;0.28;;;;;;;;;;5093413;28;20026;-69
2022/03/27 09:11:06;;;;;;;1.13;0.30;;;;;;;;;;5104549;28;20057;-68
2022/03/27 09:13:32;;;;;;;0.68;0.45;;;;;;;;;;5098087;28;20464;-64
2022/03/27 09:16:02;;;;;;;1.05;0.60;;;;;;;;;;5113093;28;20024;-64
2022/03/27 09:18:42;;;;;;;1.20;0.93;;;;;;;;;;5112931;28;20459;-76
2022/03/27 09:21:07;;;;;;;1.60;1.02;;;;;;;;;;5098201;28;20487;-63
2022/03/27 09:23:35;;;;;;;1.13;0.60;;;;;;;;;;5104922;28;20496;-65
2022/03/27 09:26:05;;;;;;;1.60;1.30;;;;;;;;;;5094091;28;20020;-65
2022/03/27 09:28:35;;;;;;;2.22;1.85;;;;;;;;;;5111761;28;20047;-64
2022/03/27 09:31:21;;;;;;;2.20;1.58;;;;;;;;;;5111379;28;20024;-64
2022/03/27 09:33:49;;;;;;;1.88;1.13;;;;;;;;;;5111350;28;20067;-65
2022/03/27 09:36:22;;;;;;;1.27;0.70;;;;;;;;;;5109951;28;20028;-65
2022/03/27 09:39:04;;;;;;;0.60;0.47;;;;;;;;;;5112345;28;20036;-65
2022/03/27 09:41:30;;;;;;;0.90;0.28;;;;;;;;;;5108749;28;20055;-65
2022/03/27 09:44:00;;;;;;;0.93;0.28;;;;;;;;;;5104011;28;20043;-65
2022/03/27 09:46:26;;;;;;;0.50;0.20;;;;;;;;;;5097282;28;20289;-64
2022/03/27 09:48:57;;;;;;;1.05;0.22;;;;;;;;;;5106686;28;20051;-65
2022/03/27 09:51:22;;;;;;;2.55;0.50;;;;;;;;;;5108977;28;20030;-65
2022/03/27 09:53:55;;;;;;;0.80;0.80;;;;;;;;;;5111960;28;20024;-65
2022/03/27 09:56:22;;;;;;;1.08;0.47;;;;;;;;;;5103865;28;20036;-65
2022/03/27 09:58:48;;;;;;;0.40;0.20;;;;;;;;;;5104331;28;20044;-65
2022/03/27 10:01:14;;;;;;;1.58;0.30;;;;;;;;;;5109466;28;20027;-66
2022/03/27 10:03:57;;;;;;;0.50;0.28;;;;;;;;;;5092486;28;20464;-65
2022/03/27 10:06:29;;;;;;;0.43;0.15;;;;;;;;;;5110436;28;20075;-63
2022/03/27 10:08:54;;;;;;;0.40;0.30;;;;;;;;;;5111446;28;20015;-65
2022/03/27 10:11:23;;;;;;;0.65;0.30;;;;;;;;;;5111056;28;20020;-66
2022/03/27 10:13:49;;;;;;;0.45;0.20;;;;;;;;;;5110576;28;20034;-65
2022/03/27 10:16:15;;;;;;;0.90;0.43;;;;;;;;;;5095399;28;20031;-65
2022/03/27 10:18:41;;;;;;;0.88;0.40;;;;;;;;;;5091439;28;20383;-65
2022/03/27 10:21:07;;;;;;;1.15;0.60;;;;;;;;;;5113116;28;20030;-65
2022/03/27 10:23:32;;;;;;;0.60;0.30;;;;;;;;;;5114093;28;20023;-65
2022/03/27 10:26:02;;;;;;;1.55;0.20;;;;;;;;;;5109396;28;20080;-65
2022/03/27 10:28:28;;;;;;;0.50;0.30;;;;;;;;;;5110605;28;20051;-65
2022/03/27 10:30:53;;;;;;;0.50;0.40;;;;;;;;;;5108967;28;20058;-66
2022/03/27 10:33:20;;;;;;;0.93;0.45;;;;;;;;;;5103734;28;20058;-65
2022/03/27 10:36:05;;;;;;;1.10;0.50;;;;;;;;;;5110348;28;20055;-65
2022/03/27 10:38:33;;;;;;;0.65;0.65;;;;;;;;;;5103958;28;20038;-64
2022/03/27 10:41:11;;;;;;;0.95;0.45;;;;;;;;;;5115636;28;20023;-66
2022/03/27 10:43:43;;;;;;;1.27;0.60;;;;;;;;;;5115047;28;20031;-65
2022/03/27 10:46:16;;;;;;;0.60;0.50;;;;;;;;;;5114709;28;20026;-66
2022/03/27 10:48:42;;;;;;;0.50;0.30;;;;;;;;;;5115468;28;20023;-65
2022/03/27 10:51:30;;;;;;;0.50;0.40;;;;;;;;;;5110971;28;20012;-65
2022/03/27 10:54:02;;;;;;;0.77;0.50;;;;;;;;;;5088661;28;20055;-65
2022/03/27 10:56:31;;;;;;;0.60;0.60;;;;;;;;;;5101263;28;20030;-65
2022/03/27 10:59:13;;;;;;;0.60;0.52;;;;;;;;;;5105314;28;20071;-65
2022/03/27 11:01:39;;;;;;;0.80;0.40;;;;;;;;;;5114503;28;20024;-66
2022/03/27 11:04:06;;;;;;;0.88;0.65;;;;;;;;;;5114467;28;20106;-66
2022/03/27 11:06:42;;;;;;;0.88;0.52;;;;;;;;;;5114328;28;20042;-66
2022/03/27 11:09:08;;;;;;;1.00;0.63;;;;;;;;;;5112685;28;20023;-66
2022/03/27 11:11:33;;;;;;;1.00;0.80;;;;;;;;;;5105945;28;20058;-66
2022/03/27 11:13:58;;;;;;;0.87;0.87;;;;;;;;;;5094796;28;20110;-66
2022/03/27 11:16:23;;;;;;;1.63;0.50;;;;;;;;;;5100727;28;20257;-66
2022/03/27 11:18:49;;;;;;;0.50;0.40;;;;;;;;;;5114985;28;20530;-66
2022/03/27 11:21:26;;;;;;;0.60;0.43;;;;;;;;;;5110896;28;20427;-66
2022/03/27 11:23:52;;;;;;;0.80;0.60;;;;;;;;;;5105725;28;20460;-65
2022/03/27 11:26:20;;;;;;;0.60;0.52;;;;;;;;;;5097079;28;20076;-65
2022/03/27 11:28:46;;;;;;;0.65;0.30;;;;;;;;;;5114082;28;20028;-66
2022/03/27 11:31:11;;;;;;;1.08;0.57;;;;;;;;;;5107503;28;20518;-66
2022/03/27 11:33:37;;;;;;;1.00;0.60;;;;;;;;;;5114756;28;20278;-66
2022/03/27 11:36:13;;;;;;;1.48;0.90;;;;;;;;;;5114654;28;20024;-66
2022/03/27 11:38:58;;;;;;;0.60;0.60;;;;;;;;;;5113020;28;20020;-66
2022/03/27 11:41:44;;;;;;;1.15;0.80;;;;;;;;;;5103056;28;20107;-66
2022/03/27 11:47:16;;;;;;;1.75;0.60;;;;;;;;;;5115114;28;20073;-66
2022/03/27 11:49:42;;;;;;;0.70;0.50;;;;;;;;;;5102552;27;20019;-66
2022/03/27 11:52:09;;;;;;;1.58;0.80;;;;;;;;;;5106915;28;20028;-66
2022/03/27 11:54:34;;;;;;;0.70;0.63;;;;;;;;;;5098539;28;20574;-66
2022/03/27 11:57:01;;;;;;;2.35;0.60;;;;;;;;;;5102834;28;21658;-66
2022/03/27 11:59:26;;;;;;;0.93;0.63;;;;;;;;;;5112876;28;20132;-66
2022/03/27 12:01:53;;;;;;;0.75;0.52;;;;;;;;;;5095418;28;20110;-66
2022/03/27 12:04:18;;;;;;;1.08;0.60;;;;;;;;;;5109342;28;20024;-66
2022/03/27 12:06:44;;;;;;;1.02;0.55;;;;;;;;;;5112494;28;20069;-65
2022/03/27 12:09:21;;;;;;;0.85;0.77;;;;;;;;;;5112868;28;20457;-66
2022/03/27 12:11:46;;;;;;;0.70;0.70;;;;;;;;;;5114452;28;20493;-66
2022/03/27 12:14:12;;;;;;;2.07;0.97;;;;;;;;;;5102203;28;20035;-66
2022/03/27 12:16:37;;;;;;;1.73;0.80;;;;;;;;;;5106154;28;20072;-65
2022/03/27 12:19:11;;;;;;;0.88;0.65;;;;;;;;;;5108123;28;20281;-65
2022/03/27 12:21:43;;;;;;;1.05;0.98;;;;;;;;;;5092161;28;20107;-65
2022/03/27 12:24:09;;;;;;;1.80;1.20;;;;;;;;;;5095447;28;20016;-65
2022/03/27 12:32:11;;;;;;;2.13;2.03;;;;;;;;;;5103969;28;20050;-65
2022/03/27 12:34:41;;;;;;;1.27;1.17;;;;;;;;;;5105084;28;20046;-66
2022/03/27 12:37:12;;;;;;;1.38;1.20;;;;;;;;;;5107362;27;20023;-65
2022/03/27 12:39:58;;;;;;;1.00;1.00;;;;;;;;;;5110224;28;20362;-65
2022/03/27 12:42:35;;;;;;;1.58;1.20;;;;;;;;;;5113902;28;20519;-65
2022/03/27 12:45:11;;;;;;;1.10;1.10;;;;;;;;;;5103701;28;20015;-65
2022/03/27 12:47:42;;;;;;;2.85;1.17;;;;;;;;;;5099919;28;20505;-66
2022/03/27 12:50:09;;;;;;;1.58;1.48;;;;;;;;;;5112646;28;20051;-65
2022/03/27 12:52:42;;;;;;;1.25;1.15;;;;;;;;;;5113028;28;20020;-66
2022/03/27 12:55:07;;;;;;;1.40;1.30;;;;;;;;;;5111975;28;20015;-66
2022/03/27 12:57:52;;;;;;;1.30;1.20;;;;;;;;;;5106795;28;20404;-65
2022/03/27 13:00:18;;;;;;;1.63;1.52;;;;;;;;;;5101574;28;20043;-65
2022/03/27 13:02:43;;;;;;;3.03;2.00;;;;;;;;;;5109797;28;20051;-65
2022/03/27 13:05:08;;;;;;;1.92;1.70;;;;;;;;;;5098292;28;20019;-66
2022/03/27 13:07:56;;;;;;;1.60;1.50;;;;;;;;;;5111350;28;20103;-66
2022/03/27 13:10:22;;;;;;;1.42;1.23;;;;;;;;;;5113253;28;20032;-65
2022/03/27 13:13:01;;;;;;;1.70;1.60;;;;;;;;;;5111971;28;20019;-71
2022/03/27 13:15:39;;;;;;;1.95;1.85;;;;;;;;;;5091764;28;20067;-73
2022/03/27 13:18:09;;;;;;;1.52;1.42;;;;;;;;;;5107886;28;20038;-66
2022/03/27 13:20:34;;;;;;;1.67;1.55;;;;;;;;;;5099754;28;20012;-64
2022/03/27 13:23:00;;;;;;;2.53;1.83;;;;;;;;;;5092257;28;20012;-64
2022/03/27 13:25:25;;;;;;;2.05;1.80;;;;;;;;;;5092702;28;20034;-64
2022/03/27 13:27:50;;;;;;;1.90;1.70;;;;;;;;;;5107687;28;20115;-64
2022/03/27 13:30:15;;;;;;;1.43;1.33;;;;;;;;;;5109275;28;20051;-66
2022/03/27 13:32:40;;;;;;;1.90;1.80;;;;;;;;;;5104768;28;20028;-63
2022/03/27 13:35:06;;;;;;;2.95;1.77;;;;;;;;;;5101687;28;20032;-64
2022/03/27 13:37:31;;;;;;;1.70;1.60;;;;;;;;;;5103928;28;20499;-64
2022/03/27 13:39:56;;;;;;;1.85;1.75;;;;;;;;;;5112281;28;20445;-64
2022/03/27 13:45:05;;;;;;;1.58;1.48;;;;;;;;;;5091584;28;20123;-64
2022/03/27 13:47:30;;;;;;;1.60;1.50;;;;;;;;;;5100053;28;20118;-64
2022/03/27 13:49:56;;;;;;;1.90;1.80;;;;;;;;;;5096665;28;20111;-67
2022/03/27 13:52:21;;;;;;;1.65;1.55;;;;;;;;;;5091516;28;20036;-65
2022/03/27 13:54:46;;;;;;;2.80;1.87;;;;;;;;;;5091774;28;20028;-64
2022/03/27 13:57:12;;;;;;;2.20;2.10;;;;;;;;;;5102528;28;20475;-66
2022/03/27 13:59:37;;;;;;;2.40;2.20;;;;;;;;;;5107811;28;20297;-66
2022/03/27 14:02:03;;;;;;;1.90;1.80;;;;;;;;;;5111570;28;20000;-65
2022/03/27 14:04:28;;;;;;;1.67;1.58;;;;;;;;;;5112113;28;20249;-65
2022/03/27 14:06:54;;;;;;;2.10;2.00;;;;;;;;;;5111094;28;20019;-66
2022/03/27 14:09:19;;;;;;;1.58;1.48;;;;;;;;;;5097768;28;20273;-65
2022/03/27 14:11:45;;;;;;;2.00;1.90;;;;;;;;;;5091499;28;20100;-65
2022/03/27 14:14:10;;;;;;;2.25;2.15;;;;;;;;;;5091794;28;20487;-65
2022/03/27 14:16:37;;;;;;;2.60;2.30;;;;;;;;;;5094442;28;20027;-65
2022/03/27 14:19:03;;;;;;;1.75;1.65;;;;;;;;;;5108953;28;20119;-62
2022/03/27 14:21:28;;;;;;;2.72;2.53;;;;;;;;;;5110262;28;20023;-62
2022/03/27 14:23:53;;;;;;;1.98;1.83;;;;;;;;;;5097276;28;20507;-62
2022/03/27 14:26:19;;;;;;;1.80;1.70;;;;;;;;;;5095738;28;20063;-61
2022/03/27 14:28:44;;;;;;;2.40;2.03;;;;;;;;;;5103506;28;20020;-61
2022/03/27 14:31:10;;;;;;;2.00;1.55;;;;;;;;;;5100037;28;20107;-62
2022/03/27 14:33:35;;;;;;;2.17;1.77;;;;;;;;;;5091777;28;20435;-67
2022/03/27 14:36:00;;;;;;;2.58;2.38;;;;;;;;;;5107551;28;20051;-64
2022/03/27 14:38:26;;;;;;;2.10;2.00;;;;;;;;;;5110743;28;20027;-63
2022/03/27 14:40:52;;;;;;;2.00;1.90;;;;;;;;;;5102069;28;20106;-63
2022/03/27 14:43:17;;;;;;;2.72;2.30;;;;;;;;;;5111188;28;20107;-63
2022/03/27 14:45:42;;;;;;;1.98;1.77;;;;;;;;;;5105745;28;20058;-63